createdAt,value
2022-08-31T00:01:30.603Z,22.02
2022-08-31T00:04:03.262Z,21.94
2022-08-31T00:06:32.309Z,21.96
2022-08-31T00:09:00.708Z,21.97
2022-08-31T00:11:30.771Z,22.25
2022-08-31T00:14:01.634Z,22.06
2022-08-31T00:16:33.825Z,22.06
2022-08-31T00:19:04.949Z,22.29
2022-08-31T00:21:33.321Z,22.24
2022-08-31T00:24:01.435Z,21.99
2022-08-31T00:26:29.463Z,22.05
2022-08-31T00:28:57.638Z,22.11
2022-08-31T00:31:25.738Z,22.17
2022-08-31T00:33:53.776Z,22.12
2022-08-31T00:36:25.185Z,22.24
2022-08-31T00:38:54.452Z,22.41
2022-08-31T00:41:25.574Z,22.23
2022-08-31T00:43:55.502Z,22.27
2022-08-31T00:46:25.192Z,22.12
2022-08-31T00:49:00.242Z,22.00
2022-08-31T00:51:33.705Z,21.83
2022-08-31T00:54:02.186Z,21.76
2022-08-31T00:56:31.323Z,21.76
2022-08-31T00:59:00.949Z,21.81
2022-08-31T01:01:30.289Z,21.71
2022-08-31T01:03:59.984Z,21.67
2022-08-31T01:06:30.354Z,21.55
2022-08-31T01:09:00.987Z,21.46
2022-08-31T01:11:29.639Z,21.74
2022-08-31T01:13:57.831Z,21.68
2022-08-31T01:16:31.034Z,21.75
2022-08-31T01:19:01.249Z,21.77
2022-08-31T01:21:36.576Z,21.68
2022-08-31T01:24:07.720Z,21.54
2022-08-31T01:26:36.641Z,21.47
2022-08-31T01:29:06.697Z,21.42
2022-08-31T01:31:42.821Z,21.33
2022-08-31T01:34:11.661Z,21.26
2022-08-31T01:36:42.211Z,21.24
2022-08-31T01:39:12.533Z,21.27
2022-08-31T01:41:43.982Z,21.19
2022-08-31T01:44:13.636Z,21.11
2022-08-31T01:46:41.514Z,21.03
2022-08-31T01:49:09.674Z,20.99
2022-08-31T01:51:37.790Z,20.94
2022-08-31T01:54:06.680Z,20.90
2022-08-31T01:56:37.914Z,20.82
2022-08-31T01:59:10.272Z,20.75
2022-08-31T02:01:57.448Z,20.68
2022-08-31T02:04:27.162Z,20.60
2022-08-31T02:06:59.549Z,20.50
2022-08-31T02:09:28.504Z,20.42
2022-08-31T02:11:58.193Z,20.35
2022-08-31T02:14:26.021Z,20.26
2022-08-31T02:16:55.665Z,20.18
2022-08-31T02:19:23.958Z,20.12
2022-08-31T02:21:52.005Z,20.07
2022-08-31T02:24:20.078Z,20.03
2022-08-31T02:26:53.527Z,19.97
2022-08-31T02:29:23.462Z,19.90
2022-08-31T02:31:51.846Z,19.85
2022-08-31T02:34:19.974Z,19.87
2022-08-31T02:36:48.060Z,19.93
2022-08-31T02:39:16.647Z,19.96
2022-08-31T02:41:45.673Z,20.02
2022-08-31T02:44:13.884Z,20.06
2022-08-31T02:46:43.460Z,20.01
2022-08-31T02:49:26.843Z,19.96
2022-08-31T02:51:55.618Z,19.94
2022-08-31T02:54:23.873Z,19.91
2022-08-31T02:56:53.233Z,19.89
2022-08-31T02:59:21.639Z,19.87
2022-08-31T03:01:56.253Z,19.95
2022-08-31T03:04:24.487Z,19.91
2022-08-31T03:06:52.579Z,19.90
2022-08-31T03:09:20.582Z,19.89
2022-08-31T03:11:48.582Z,19.86
2022-08-31T03:14:16.601Z,19.87
2022-08-31T03:16:45.822Z,19.90
2022-08-31T03:19:15.250Z,19.87
2022-08-31T03:21:43.302Z,19.81
2022-08-31T03:24:11.333Z,19.79
2022-08-31T03:26:39.437Z,19.74
2022-08-31T03:29:07.851Z,19.68
2022-08-31T03:31:56.053Z,19.65
2022-08-31T03:34:27.268Z,19.63
2022-08-31T03:36:55.219Z,19.63
2022-08-31T03:39:23.512Z,19.62
2022-08-31T03:41:51.546Z,19.64
2022-08-31T03:44:23.809Z,19.64
2022-08-31T03:46:55.179Z,19.64
2022-08-31T03:49:24.639Z,19.58
2022-08-31T03:52:11.407Z,19.54
2022-08-31T03:54:47.377Z,19.50
2022-08-31T03:57:15.531Z,19.49
2022-08-31T03:59:44.077Z,19.47
2022-08-31T04:02:21.434Z,19.43
2022-08-31T04:05:13.304Z,19.41
2022-08-31T04:08:08.612Z,19.40
2022-08-31T04:10:58.065Z,19.38
2022-08-31T04:13:35.052Z,19.42
2022-08-31T04:16:29.245Z,19.40
2022-08-31T04:19:17.485Z,19.40
2022-08-31T04:21:55.908Z,19.38
2022-08-31T04:24:25.918Z,19.38
2022-08-31T04:26:54.705Z,19.36
2022-08-31T04:29:23.585Z,19.34
2022-08-31T04:31:51.734Z,19.29
2022-08-31T04:34:19.742Z,19.28
2022-08-31T04:36:48.465Z,19.31
2022-08-31T04:39:17.160Z,19.31
2022-08-31T04:41:47.922Z,19.30
2022-08-31T04:44:19.924Z,19.28
2022-08-31T04:46:53.529Z,19.25
2022-08-31T04:49:21.714Z,19.28
2022-08-31T04:51:49.779Z,19.30
2022-08-31T04:54:17.885Z,19.30
2022-08-31T04:56:47.476Z,19.29
2022-08-31T04:59:27.478Z,19.25
2022-08-31T05:02:18.560Z,19.24
2022-08-31T05:04:53.697Z,19.21
2022-08-31T05:07:21.768Z,19.18
2022-08-31T05:09:49.975Z,19.13
2022-08-31T05:12:19.590Z,19.15
2022-08-31T05:14:47.774Z,19.20
2022-08-31T05:17:23.763Z,19.19
2022-08-31T05:19:52.720Z,19.18
2022-08-31T05:22:21.262Z,19.18
2022-08-31T05:24:52.605Z,19.17
2022-08-31T05:27:21.969Z,19.19
2022-08-31T05:29:50.049Z,19.30
2022-08-31T05:32:47.113Z,19.32
2022-08-31T05:35:16.690Z,19.33
2022-08-31T05:37:46.269Z,19.36
2022-08-31T05:40:15.294Z,19.40
2022-08-31T05:42:44.800Z,19.46
2022-08-31T05:45:13.203Z,19.50
2022-08-31T05:47:43.331Z,19.51
2022-08-31T05:50:11.496Z,19.57
2022-08-31T05:52:42.743Z,19.66
2022-08-31T05:55:11.944Z,19.70
2022-08-31T05:57:40.587Z,19.74
2022-08-31T06:00:12.091Z,19.95
2022-08-31T06:02:50.128Z,19.87
2022-08-31T06:05:20.691Z,19.81
2022-08-31T06:07:50.383Z,19.77
2022-08-31T06:10:20.807Z,19.81
2022-08-31T06:12:49.943Z,19.83
2022-08-31T06:15:20.961Z,19.88
2022-08-31T06:17:49.121Z,19.84
2022-08-31T06:20:18.303Z,19.76
2022-08-31T06:22:47.860Z,19.81
2022-08-31T06:25:24.755Z,19.83
2022-08-31T06:27:53.012Z,19.71
2022-08-31T06:30:27.129Z,19.68
2022-08-31T06:32:58.660Z,19.70
2022-08-31T06:35:31.873Z,19.74
2022-08-31T06:38:32.971Z,19.49
2022-08-31T06:41:21.369Z,19.50
2022-08-31T06:44:14.323Z,19.14
2022-08-31T06:47:03.035Z,18.79
2022-08-31T06:49:34.742Z,18.72
2022-08-31T06:52:03.969Z,18.33
2022-08-31T06:54:36.337Z,18.01
2022-08-31T06:57:23.295Z,17.71
2022-08-31T07:00:10.800Z,17.49
2022-08-31T07:03:22.995Z,17.22
2022-08-31T07:05:53.681Z,17.06
2022-08-31T07:08:22.655Z,16.96
2022-08-31T07:10:51.092Z,16.88
2022-08-31T07:13:20.047Z,16.87
2022-08-31T07:15:48.381Z,16.68
2022-08-31T07:18:18.093Z,16.59
2022-08-31T07:20:47.072Z,16.58
2022-08-31T07:23:15.179Z,16.60
2022-08-31T07:25:53.859Z,16.58
2022-08-31T07:28:21.843Z,16.57
2022-08-31T07:30:50.169Z,16.59
2022-08-31T07:33:20.926Z,16.60
2022-08-31T07:35:57.038Z,16.56
2022-08-31T07:39:01.407Z,16.57
2022-08-31T07:41:49.534Z,16.60
2022-08-31T07:44:19.544Z,16.68
2022-08-31T07:46:48.482Z,16.84
2022-08-31T07:49:19.633Z,16.90
2022-08-31T07:52:16.126Z,16.85
2022-08-31T07:55:11.816Z,16.90
2022-08-31T07:57:54.987Z,16.86
2022-08-31T08:00:25.658Z,16.84
2022-08-31T08:02:54.156Z,16.85
2022-08-31T08:05:31.745Z,16.85
2022-08-31T08:08:25.041Z,16.90
2022-08-31T08:11:28.789Z,16.94
2022-08-31T08:14:37.163Z,17.11
2022-08-31T08:17:18.268Z,17.26
2022-08-31T08:20:05.409Z,17.14
2022-08-31T08:22:51.645Z,17.04
2022-08-31T08:25:31.332Z,17.00
2022-08-31T08:31:06.959Z,17.13
2022-08-31T08:33:37.694Z,17.07
2022-08-31T08:36:08.568Z,17.11
2022-08-31T08:38:43.637Z,17.03
2022-08-31T08:41:14.556Z,16.94
2022-08-31T08:43:52.830Z,16.97
2022-08-31T08:46:37.071Z,16.96
2022-08-31T08:49:16.218Z,16.97
2022-08-31T08:51:47.278Z,16.96
2022-08-31T08:54:26.058Z,17.12
2022-08-31T08:56:54.897Z,17.37
2022-08-31T08:59:23.821Z,17.25
2022-08-31T09:01:56.299Z,17.28
2022-08-31T09:04:59.785Z,17.31
2022-08-31T09:08:01.308Z,17.50
2022-08-31T09:10:35.459Z,17.49
2022-08-31T09:13:14.446Z,17.51
2022-08-31T09:15:57.231Z,17.58
2022-08-31T09:18:43.147Z,17.61
2022-08-31T09:21:21.459Z,17.72
2022-08-31T09:24:02.997Z,17.72
2022-08-31T09:26:59.402Z,17.88
2022-08-31T09:29:44.040Z,17.90
2022-08-31T09:32:23.173Z,17.84
2022-08-31T09:35:00.360Z,18.09
2022-08-31T09:37:33.199Z,18.31
2022-08-31T09:40:17.007Z,18.43
2022-08-31T09:43:04.852Z,18.36
2022-08-31T09:45:41.405Z,18.55
2022-08-31T09:48:10.394Z,18.70
2022-08-31T09:50:44.998Z,18.92
2022-08-31T09:53:35.642Z,18.73
2022-08-31T09:56:15.856Z,19.13
2022-08-31T09:58:48.531Z,19.25
2022-08-31T10:01:22.373Z,19.39
2022-08-31T10:03:50.928Z,19.58
2022-08-31T10:06:41.660Z,19.85
2022-08-31T10:09:18.959Z,19.84
2022-08-31T10:11:49.746Z,20.25
2022-08-31T10:14:28.035Z,20.47
2022-08-31T10:17:02.714Z,20.79
2022-08-31T10:19:51.978Z,21.42
2022-08-31T10:22:28.620Z,22.36
2022-08-31T10:25:06.506Z,22.61
2022-08-31T10:27:40.299Z,23.19
2022-08-31T10:30:19.008Z,24.42
2022-08-31T10:32:57.252Z,25.02
2022-08-31T10:35:37.303Z,25.37
2022-08-31T10:38:19.878Z,24.44
2022-08-31T10:40:52.771Z,24.30
2022-08-31T10:43:23.845Z,24.39
2022-08-31T10:45:54.598Z,23.85
2022-08-31T10:48:26.025Z,24.17
2022-08-31T10:51:05.634Z,24.14
2022-08-31T10:53:47.104Z,23.57
2022-08-31T10:56:20.997Z,23.44
2022-08-31T10:59:03.251Z,23.01
2022-08-31T11:01:44.946Z,22.81
2022-08-31T11:04:29.296Z,23.05
2022-08-31T11:07:26.323Z,22.70
2022-08-31T11:10:05.366Z,23.01
2022-08-31T11:12:42.353Z,22.86
2022-08-31T11:15:37.544Z,22.63
2022-08-31T11:18:40.151Z,22.26
2022-08-31T11:21:35.296Z,22.23
2022-08-31T11:24:34.918Z,22.05
2022-08-31T11:27:14.164Z,21.65
2022-08-31T11:29:57.341Z,22.03
2022-08-31T11:32:34.168Z,21.77
2022-08-31T11:35:09.942Z,21.94
2022-08-31T11:37:57.801Z,21.86
2022-08-31T11:40:58.864Z,22.05
2022-08-31T11:43:45.461Z,22.25
2022-08-31T11:46:45.674Z,22.76
2022-08-31T11:49:51.029Z,22.83
2022-08-31T11:52:53.371Z,22.90
2022-08-31T11:55:28.472Z,23.57
2022-08-31T11:58:26.861Z,23.55
2022-08-31T12:00:59.932Z,23.28
2022-08-31T12:03:53.668Z,23.67
2022-08-31T12:07:07.883Z,23.40
2022-08-31T12:10:03.944Z,23.37
2022-08-31T12:12:56.692Z,23.39
2022-08-31T12:15:35.866Z,23.27
2022-08-31T12:18:17.291Z,23.48
2022-08-31T12:21:16.641Z,23.25
2022-08-31T12:23:49.478Z,23.13
2022-08-31T12:26:44.372Z,23.07
2022-08-31T12:29:26.827Z,22.96
2022-08-31T12:32:22.561Z,22.93
2022-08-31T12:34:57.454Z,23.15
2022-08-31T12:37:28.084Z,23.38
2022-08-31T12:40:12.750Z,23.64
2022-08-31T12:42:51.029Z,23.77
2022-08-31T12:45:19.420Z,23.92
2022-08-31T12:47:58.932Z,24.38
2022-08-31T12:50:36.703Z,24.80
2022-08-31T12:53:38.498Z,24.86
2022-08-31T12:56:12.139Z,25.21
2022-08-31T12:58:58.500Z,25.03
2022-08-31T13:01:28.336Z,24.60
2022-08-31T13:04:00.587Z,24.53
2022-08-31T13:06:32.669Z,24.44
2022-08-31T13:09:02.293Z,24.39
2022-08-31T13:11:35.262Z,23.98
2022-08-31T13:14:18.138Z,24.02
2022-08-31T13:16:49.312Z,24.22
2022-08-31T13:19:25.449Z,24.00
2022-08-31T13:21:57.188Z,23.58
2022-08-31T13:24:28.882Z,23.51
2022-08-31T13:27:13.769Z,23.79
2022-08-31T13:29:44.149Z,24.71
2022-08-31T13:32:14.927Z,25.40
2022-08-31T13:34:43.153Z,25.84
2022-08-31T13:37:21.036Z,25.51
2022-08-31T13:39:49.233Z,25.17
2022-08-31T13:42:31.883Z,25.55
2022-08-31T13:45:04.439Z,25.38
2022-08-31T13:47:34.829Z,25.69
2022-08-31T13:50:21.745Z,25.61
2022-08-31T13:53:09.507Z,25.61
2022-08-31T13:55:43.487Z,26.25
2022-08-31T13:58:27.243Z,26.80
2022-08-31T14:01:20.684Z,27.04
2022-08-31T14:03:58.006Z,27.53
2022-08-31T14:06:29.158Z,28.00
2022-08-31T14:09:03.373Z,28.22
2022-08-31T14:11:33.583Z,28.64
2022-08-31T14:14:05.889Z,28.60
2022-08-31T14:16:38.503Z,28.78
2022-08-31T14:19:07.089Z,29.06
2022-08-31T14:21:38.298Z,29.31
2022-08-31T14:24:10.416Z,29.47
2022-08-31T14:26:41.547Z,28.49
2022-08-31T14:29:12.263Z,27.96
2022-08-31T14:31:46.855Z,27.08
2022-08-31T14:34:23.057Z,26.67
2022-08-31T14:36:57.396Z,26.39
2022-08-31T14:39:30.759Z,27.66
2022-08-31T14:42:01.466Z,27.10
2022-08-31T14:44:32.712Z,26.36
2022-08-31T14:47:02.481Z,25.85
2022-08-31T14:49:36.389Z,25.63
2022-08-31T14:52:06.811Z,25.13
2022-08-31T14:54:36.906Z,24.96
2022-08-31T14:57:09.507Z,24.63
2022-08-31T14:59:40.515Z,24.56
2022-08-31T15:02:12.049Z,24.66
2022-08-31T15:04:45.337Z,24.76
2022-08-31T15:07:16.001Z,24.84
2022-08-31T15:09:46.654Z,24.64
2022-08-31T15:12:15.683Z,24.50
2022-08-31T15:14:47.075Z,24.57
2022-08-31T15:17:19.109Z,24.65
2022-08-31T15:19:50.178Z,24.57
2022-08-31T15:22:19.095Z,24.37
2022-08-31T15:24:47.565Z,24.45
2022-08-31T15:27:17.028Z,24.19
2022-08-31T15:29:46.679Z,24.19
2022-08-31T15:32:17.415Z,24.30
2022-08-31T15:34:49.914Z,24.17
2022-08-31T15:37:18.419Z,24.30
2022-08-31T15:39:49.155Z,24.33
2022-08-31T15:42:20.747Z,24.08
2022-08-31T15:44:56.030Z,24.08
2022-08-31T15:47:44.487Z,24.25
2022-08-31T15:50:12.912Z,24.11
2022-08-31T15:52:51.045Z,24.16
2022-08-31T15:55:26.270Z,24.09
2022-08-31T15:57:55.093Z,23.90
2022-08-31T16:00:24.233Z,23.92
2022-08-31T16:02:55.107Z,23.96
2022-08-31T16:05:23.872Z,23.96
2022-08-31T16:07:52.016Z,23.81
2022-08-31T16:10:20.579Z,24.06
2022-08-31T16:12:50.361Z,24.06
2022-08-31T16:15:21.195Z,24.01
2022-08-31T16:17:57.521Z,24.06
2022-08-31T16:20:29.263Z,24.03
2022-08-31T16:22:58.883Z,24.44
2022-08-31T16:25:30.362Z,24.46
2022-08-31T16:28:16.092Z,24.39
2022-08-31T16:30:45.021Z,24.65
2022-08-31T16:33:14.458Z,24.60
2022-08-31T16:35:44.507Z,24.67
2022-08-31T16:38:12.718Z,24.50
2022-08-31T16:40:42.241Z,24.39
2022-08-31T16:43:10.855Z,24.33
2022-08-31T16:45:39.558Z,24.22
2022-08-31T16:48:25.745Z,24.39
2022-08-31T16:51:01.868Z,24.17
2022-08-31T16:53:31.074Z,24.19
2022-08-31T16:55:59.817Z,23.87
2022-08-31T16:58:50.546Z,23.95
2022-08-31T17:01:19.017Z,23.59
2022-08-31T17:03:49.886Z,23.35
2022-08-31T17:06:19.694Z,23.42
2022-08-31T17:08:47.854Z,23.45
2022-08-31T17:11:23.633Z,23.36
2022-08-31T17:13:58.101Z,23.22
2022-08-31T17:16:28.985Z,23.29
2022-08-31T17:18:58.442Z,23.22
2022-08-31T17:21:29.842Z,23.05
2022-08-31T17:24:01.866Z,23.07
2022-08-31T17:26:33.717Z,22.88
2022-08-31T17:29:04.057Z,22.61
2022-08-31T17:31:33.632Z,22.38
2022-08-31T17:34:02.199Z,22.12
2022-08-31T17:36:37.209Z,21.86
2022-08-31T17:39:06.328Z,21.72
2022-08-31T17:41:34.386Z,21.56
2022-08-31T17:44:02.945Z,21.51
2022-08-31T17:46:31.398Z,21.54
2022-08-31T17:49:00.410Z,21.47
2022-08-31T17:51:30.350Z,21.39
2022-08-31T17:54:02.845Z,21.17
2022-08-31T17:56:34.771Z,20.98
2022-08-31T17:59:02.935Z,20.80
2022-08-31T18:01:31.298Z,20.59
2022-08-31T18:04:02.203Z,20.43
2022-08-31T18:06:31.046Z,20.26
2022-08-31T18:09:01.040Z,20.11
2022-08-31T18:11:29.280Z,19.95
2022-08-31T18:13:57.906Z,19.81
2022-08-31T18:16:26.141Z,19.58
2022-08-31T18:18:54.514Z,19.37
2022-08-31T18:21:24.366Z,19.16
2022-08-31T18:23:54.123Z,18.99
2022-08-31T18:26:27.086Z,18.82
2022-08-31T18:28:55.996Z,18.68
2022-08-31T18:31:30.403Z,18.59
2022-08-31T18:33:58.942Z,18.57
2022-08-31T18:36:29.419Z,18.61
2022-08-31T18:39:00.317Z,18.57
2022-08-31T18:41:48.204Z,18.47
2022-08-31T18:44:33.718Z,18.41
2022-08-31T18:47:05.860Z,18.37
2022-08-31T18:49:38.943Z,18.27
2022-08-31T18:52:09.345Z,18.13
2022-08-31T18:54:37.516Z,18.07
2022-08-31T18:57:07.170Z,18.01
2022-08-31T18:59:35.392Z,17.93
2022-08-31T19:02:03.603Z,17.94
2022-08-31T19:04:32.170Z,17.86
2022-08-31T19:07:00.242Z,17.70
2022-08-31T19:09:28.640Z,17.55
2022-08-31T19:12:02.124Z,17.45
2022-08-31T19:14:35.250Z,17.36
2022-08-31T19:17:04.880Z,17.27
2022-08-31T19:19:33.648Z,17.20
2022-08-31T19:22:01.683Z,17.14
2022-08-31T19:24:29.773Z,17.05
2022-08-31T19:27:00.000Z,16.97
2022-08-31T19:29:31.423Z,16.89
2022-08-31T19:32:03.508Z,16.85
2022-08-31T19:34:33.462Z,16.81
2022-08-31T19:37:01.987Z,16.81
2022-08-31T19:39:37.114Z,16.81
2022-08-31T19:42:08.815Z,16.83
2022-08-31T19:44:54.941Z,16.81
2022-08-31T19:47:28.402Z,16.77
2022-08-31T19:49:56.459Z,16.74
2022-08-31T19:52:25.715Z,16.72
2022-08-31T19:54:53.849Z,16.66
2022-08-31T19:57:22.488Z,16.59
2022-08-31T19:59:50.636Z,16.49
2022-08-31T20:02:18.885Z,16.38
2022-08-31T20:04:48.418Z,16.28
2022-08-31T20:07:16.695Z,16.25
2022-08-31T20:09:44.728Z,16.21
2022-08-31T20:12:12.805Z,16.14
2022-08-31T20:14:40.972Z,16.09
2022-08-31T20:17:09.770Z,16.06
2022-08-31T20:19:39.428Z,16.05
2022-08-31T20:22:08.788Z,16.02
2022-08-31T20:24:44.045Z,16.09
2022-08-31T20:27:18.542Z,16.14
2022-08-31T20:29:47.998Z,16.26
2022-08-31T20:32:16.096Z,16.26
2022-08-31T20:34:44.628Z,16.23
2022-08-31T20:37:14.159Z,16.23
2022-08-31T20:39:42.969Z,16.18
2022-08-31T20:42:11.046Z,16.24
2022-08-31T20:44:39.656Z,16.26
2022-08-31T20:47:29.578Z,16.27
2022-08-31T20:49:59.639Z,16.25
2022-08-31T20:52:30.903Z,16.21
2022-08-31T20:55:02.335Z,16.15
2022-08-31T20:57:32.175Z,16.10
2022-08-31T21:00:03.224Z,16.12
2022-08-31T21:02:33.421Z,16.15
2022-08-31T21:05:26.758Z,16.26
2022-08-31T21:07:52.175Z,16.33
2022-08-31T21:10:26.055Z,16.50
2022-08-31T21:13:06.967Z,16.54
2022-08-31T21:15:34.921Z,16.54
2022-08-31T21:18:02.923Z,16.76
2022-08-31T21:20:32.339Z,17.06
2022-08-31T21:23:01.879Z,17.26
2022-08-31T21:25:29.861Z,17.35
2022-08-31T21:27:59.906Z,17.29
2022-08-31T21:30:29.323Z,17.32
2022-08-31T21:32:57.364Z,17.50
2022-08-31T21:35:26.683Z,17.57
2022-08-31T21:37:55.900Z,17.72
2022-08-31T21:40:28.323Z,17.79
2022-08-31T21:42:56.406Z,17.75
2022-08-31T21:45:25.181Z,17.83
2022-08-31T21:47:53.156Z,17.92
2022-08-31T21:50:21.121Z,17.77
2022-08-31T21:52:51.516Z,17.65
2022-08-31T21:55:19.736Z,17.66
2022-08-31T21:57:49.185Z,17.72
2022-08-31T22:00:21.991Z,17.78
2022-08-31T22:02:50.738Z,17.74
2022-08-31T22:05:18.997Z,17.77
2022-08-31T22:07:47.087Z,17.84
2022-08-31T22:10:15.102Z,18.01
2022-08-31T22:12:43.037Z,18.00
2022-08-31T22:15:16.630Z,18.09
2022-08-31T22:18:05.935Z,17.98
2022-08-31T22:20:33.597Z,17.90
2022-08-31T22:23:02.762Z,17.84
2022-08-31T22:25:33.490Z,17.82
2022-08-31T22:28:01.666Z,17.77
2022-08-31T22:30:31.190Z,17.70
2022-08-31T22:32:59.135Z,17.89
2022-08-31T22:35:27.079Z,17.92
2022-08-31T22:37:55.280Z,17.98
2022-08-31T22:40:23.322Z,17.92
2022-08-31T22:42:52.774Z,17.93
2022-08-31T22:45:21.081Z,18.05
2022-08-31T22:47:51.498Z,17.92
2022-08-31T22:50:19.918Z,17.85
2022-08-31T22:52:48.037Z,17.87
2022-08-31T22:55:16.059Z,17.90
2022-08-31T22:57:44.224Z,17.87
2022-08-31T23:00:13.102Z,17.82
2022-08-31T23:02:44.744Z,17.75
2022-08-31T23:05:16.086Z,17.69
2022-08-31T23:07:44.149Z,17.73
2022-08-31T23:10:16.362Z,17.79
2022-08-31T23:12:44.773Z,17.88
2022-08-31T23:15:15.216Z,17.85
2022-08-31T23:17:46.005Z,17.80
2022-08-31T23:20:19.430Z,17.88
2022-08-31T23:22:48.575Z,17.84
2022-08-31T23:25:18.099Z,17.88
2022-08-31T23:27:46.407Z,17.87
2022-08-31T23:30:18.641Z,17.82
2022-08-31T23:32:47.753Z,17.74
2022-08-31T23:35:18.683Z,17.70
2022-08-31T23:37:48.790Z,17.60
2022-08-31T23:40:16.895Z,17.48
2022-08-31T23:42:44.843Z,17.46
2022-08-31T23:45:12.969Z,17.48
2022-08-31T23:47:41.001Z,17.53
2022-08-31T23:50:10.031Z,17.53
2022-08-31T23:52:41.470Z,17.49
2022-08-31T23:55:12.069Z,17.45
2022-08-31T23:57:41.727Z,17.41
